sensor_id;sensor_type;location;lat;lon;timestamp;P1;durP1;ratioP1;P2;durP2;ratioP2
12976;SDS011;6553;48.412;9.514;2023-07-08T00:01:15;4.93;;;4.28;;
12976;SDS011;6553;48.412;9.514;2023-07-08T00:03:44;4.65;;;4.25;;
12976;SDS011;6553;48.412;9.514;2023-07-08T00:06:17;5.95;;;4.80;;
12976;SDS011;6553;48.412;9.514;2023-07-08T00:08:48;5.13;;;4.43;;
12976;SDS011;6553;48.412;9.514;2023-07-08T00:11:15;6.43;;;4.40;;
12976;SDS011;6553;48.412;9.514;2023-07-08T00:13:44;5.25;;;4.45;;
12976;SDS011;6553;48.412;9.514;2023-07-08T00:16:15;5.68;;;4.75;;
12976;SDS011;6553;48.412;9.514;2023-07-08T00:18:43;5.20;;;4.15;;
12976;SDS011;6553;48.412;9.514;2023-07-08T00:21:11;6.30;;;5.15;;
12976;SDS011;6553;48.412;9.514;2023-07-08T00:23:47;4.95;;;4.35;;
12976;SDS011;6553;48.412;9.514;2023-07-08T00:26:17;5.18;;;4.32;;
12976;SDS011;6553;48.412;9.514;2023-07-08T00:28:49;5.32;;;4.45;;
12976;SDS011;6553;48.412;9.514;2023-07-08T00:31:15;5.57;;;4.50;;
12976;SDS011;6553;48.412;9.514;2023-07-08T00:33:42;5.10;;;4.53;;
12976;SDS011;6553;48.412;9.514;2023-07-08T00:36:08;5.40;;;4.55;;
12976;SDS011;6553;48.412;9.514;2023-07-08T00:38:39;5.15;;;4.60;;
12976;SDS011;6553;48.412;9.514;2023-07-08T00:43:55;5.40;;;4.90;;
12976;SDS011;6553;48.412;9.514;2023-07-08T00:49:01;5.03;;;4.53;;
12976;SDS011;6553;48.412;9.514;2023-07-08T00:51:32;5.10;;;4.60;;
12976;SDS011;6553;48.412;9.514;2023-07-08T00:53:59;6.10;;;4.85;;
12976;SDS011;6553;48.412;9.514;2023-07-08T00:56:30;5.40;;;4.32;;
12976;SDS011;6553;48.412;9.514;2023-07-08T01:02:15;5.05;;;4.55;;
12976;SDS011;6553;48.412;9.514;2023-07-08T01:07:55;4.78;;;4.35;;
12976;SDS011;6553;48.412;9.514;2023-07-08T01:10:28;6.28;;;4.45;;
12976;SDS011;6553;48.412;9.514;2023-07-08T01:13:30;4.65;;;4.10;;
12976;SDS011;6553;48.412;9.514;2023-07-08T01:16:03;4.55;;;4.15;;
12976;SDS011;6553;48.412;9.514;2023-07-08T01:18:31;6.60;;;4.25;;
12976;SDS011;6553;48.412;9.514;2023-07-08T01:21:06;5.10;;;4.50;;
12976;SDS011;6553;48.412;9.514;2023-07-08T01:24:07;4.65;;;4.15;;
12976;SDS011;6553;48.412;9.514;2023-07-08T01:26:38;5.18;;;4.68;;
12976;SDS011;6553;48.412;9.514;2023-07-08T01:29:09;5.03;;;4.53;;
12976;SDS011;6553;48.412;9.514;2023-07-08T01:31:36;5.10;;;4.60;;
12976;SDS011;6553;48.412;9.514;2023-07-08T01:34:02;5.43;;;4.53;;
12976;SDS011;6553;48.412;9.514;2023-07-08T01:36:31;4.90;;;4.47;;
12976;SDS011;6553;48.412;9.514;2023-07-08T01:39:09;4.50;;;4.10;;
12976;SDS011;6553;48.412;9.514;2023-07-08T01:41:43;5.60;;;4.82;;
12976;SDS011;6553;48.412;9.514;2023-07-08T01:44:23;4.95;;;4.45;;
12976;SDS011;6553;48.412;9.514;2023-07-08T01:47:08;4.32;;;3.83;;
12976;SDS011;6553;48.412;9.514;2023-07-08T01:49:44;4.85;;;4.35;;
12976;SDS011;6553;48.412;9.514;2023-07-08T01:52:12;5.65;;;4.63;;
12976;SDS011;6553;48.412;9.514;2023-07-08T01:54:41;5.25;;;4.72;;
12976;SDS011;6553;48.412;9.514;2023-07-08T01:57:07;5.22;;;4.00;;
12976;SDS011;6553;48.412;9.514;2023-07-08T01:59:33;5.05;;;4.35;;
12976;SDS011;6553;48.412;9.514;2023-07-08T02:01:59;5.05;;;4.35;;
12976;SDS011;6553;48.412;9.514;2023-07-08T02:04:25;5.60;;;5.00;;
12976;SDS011;6553;48.412;9.514;2023-07-08T02:09:21;5.85;;;4.60;;
12976;SDS011;6553;48.412;9.514;2023-07-08T02:11:47;5.95;;;4.55;;
12976;SDS011;6553;48.412;9.514;2023-07-08T02:14:13;5.65;;;4.50;;
12976;SDS011;6553;48.412;9.514;2023-07-08T02:16:38;5.07;;;4.45;;
12976;SDS011;6553;48.412;9.514;2023-07-08T02:19:04;5.07;;;4.32;;
12976;SDS011;6553;48.412;9.514;2023-07-08T02:21:30;5.32;;;4.50;;
12976;SDS011;6553;48.412;9.514;2023-07-08T02:23:56;5.50;;;4.80;;
12976;SDS011;6553;48.412;9.514;2023-07-08T02:26:23;5.00;;;4.50;;
12976;SDS011;6553;48.412;9.514;2023-07-08T02:28:49;5.65;;;4.72;;
12976;SDS011;6553;48.412;9.514;2023-07-08T02:31:15;4.80;;;4.38;;
12976;SDS011;6553;48.412;9.514;2023-07-08T02:33:40;5.30;;;4.25;;
12976;SDS011;6553;48.412;9.514;2023-07-08T02:36:06;5.00;;;4.50;;
12976;SDS011;6553;48.412;9.514;2023-07-08T02:38:32;6.13;;;5.15;;
12976;SDS011;6553;48.412;9.514;2023-07-08T02:41:00;5.63;;;5.03;;
12976;SDS011;6553;48.412;9.514;2023-07-08T02:43:26;4.93;;;4.35;;
12976;SDS011;6553;48.412;9.514;2023-07-08T02:45:52;5.07;;;4.57;;
12976;SDS011;6553;48.412;9.514;2023-07-08T02:48:18;5.57;;;4.68;;
12976;SDS011;6553;48.412;9.514;2023-07-08T02:50:45;4.95;;;4.45;;
12976;SDS011;6553;48.412;9.514;2023-07-08T02:53:11;4.72;;;4.28;;
12976;SDS011;6553;48.412;9.514;2023-07-08T02:55:38;4.95;;;4.32;;
12976;SDS011;6553;48.412;9.514;2023-07-08T02:58:05;5.13;;;4.32;;
12976;SDS011;6553;48.412;9.514;2023-07-08T03:00:31;5.40;;;4.80;;
12976;SDS011;6553;48.412;9.514;2023-07-08T03:02:57;6.70;;;4.80;;
12976;SDS011;6553;48.412;9.514;2023-07-08T03:05:22;5.28;;;4.65;;
12976;SDS011;6553;48.412;9.514;2023-07-08T03:07:48;4.93;;;4.43;;
12976;SDS011;6553;48.412;9.514;2023-07-08T03:10:14;5.40;;;4.30;;
12976;SDS011;6553;48.412;9.514;2023-07-08T03:12:40;5.63;;;4.55;;
12976;SDS011;6553;48.412;9.514;2023-07-08T03:15:06;5.05;;;4.28;;
12976;SDS011;6553;48.412;9.514;2023-07-08T03:17:32;4.53;;;4.03;;
12976;SDS011;6553;48.412;9.514;2023-07-08T03:19:58;5.15;;;4.65;;
12976;SDS011;6553;48.412;9.514;2023-07-08T03:22:23;5.38;;;4.85;;
12976;SDS011;6553;48.412;9.514;2023-07-08T03:24:49;5.35;;;4.85;;
12976;SDS011;6553;48.412;9.514;2023-07-08T03:27:18;5.70;;;4.22;;
12976;SDS011;6553;48.412;9.514;2023-07-08T03:29:47;5.55;;;4.40;;
12976;SDS011;6553;48.412;9.514;2023-07-08T03:32:14;4.40;;;3.75;;
12976;SDS011;6553;48.412;9.514;2023-07-08T03:34:40;6.43;;;4.80;;
12976;SDS011;6553;48.412;9.514;2023-07-08T03:37:06;4.65;;;4.13;;
12976;SDS011;6553;48.412;9.514;2023-07-08T03:39:34;5.18;;;3.95;;
12976;SDS011;6553;48.412;9.514;2023-07-08T03:42:00;6.60;;;4.38;;
12976;SDS011;6553;48.412;9.514;2023-07-08T03:44:26;4.28;;;3.85;;
12976;SDS011;6553;48.412;9.514;2023-07-08T03:46:52;5.38;;;4.13;;
12976;SDS011;6553;48.412;9.514;2023-07-08T03:49:19;4.93;;;4.40;;
12976;SDS011;6553;48.412;9.514;2023-07-08T03:51:50;4.50;;;4.10;;
12976;SDS011;6553;48.412;9.514;2023-07-08T03:54:19;5.75;;;4.43;;
12976;SDS011;6553;48.412;9.514;2023-07-08T03:56:47;5.22;;;4.72;;
12976;SDS011;6553;48.412;9.514;2023-07-08T03:59:13;4.82;;;4.32;;
12976;SDS011;6553;48.412;9.514;2023-07-08T04:01:40;4.80;;;4.30;;
12976;SDS011;6553;48.412;9.514;2023-07-08T04:04:10;5.20;;;4.68;;
12976;SDS011;6553;48.412;9.514;2023-07-08T04:06:39;5.80;;;4.85;;
12976;SDS011;6553;48.412;9.514;2023-07-08T04:09:06;5.28;;;4.57;;
12976;SDS011;6553;48.412;9.514;2023-07-08T04:11:32;5.25;;;4.68;;
12976;SDS011;6553;48.412;9.514;2023-07-08T04:13:57;4.90;;;4.45;;
12976;SDS011;6553;48.412;9.514;2023-07-08T04:16:28;5.22;;;4.72;;
12976;SDS011;6553;48.412;9.514;2023-07-08T04:19:01;6.10;;;4.55;;
12976;SDS011;6553;48.412;9.514;2023-07-08T04:21:27;5.25;;;4.75;;
12976;SDS011;6553;48.412;9.514;2023-07-08T04:23:55;4.93;;;3.83;;
12976;SDS011;6553;48.412;9.514;2023-07-08T04:26:21;5.38;;;4.82;;
12976;SDS011;6553;48.412;9.514;2023-07-08T04:28:46;5.10;;;4.60;;
12976;SDS011;6553;48.412;9.514;2023-07-08T04:31:12;5.75;;;4.65;;
12976;SDS011;6553;48.412;9.514;2023-07-08T04:33:38;5.22;;;4.72;;
12976;SDS011;6553;48.412;9.514;2023-07-08T04:36:04;5.75;;;4.68;;
12976;SDS011;6553;48.412;9.514;2023-07-08T04:38:38;4.70;;;4.30;;
12976;SDS011;6553;48.412;9.514;2023-07-08T04:41:06;5.55;;;4.55;;
12976;SDS011;6553;48.412;9.514;2023-07-08T04:43:31;4.90;;;4.40;;
12976;SDS011;6553;48.412;9.514;2023-07-08T04:45:57;4.68;;;4.28;;
12976;SDS011;6553;48.412;9.514;2023-07-08T04:48:24;5.40;;;4.70;;
12976;SDS011;6553;48.412;9.514;2023-07-08T04:50:50;5.78;;;4.50;;
12976;SDS011;6553;48.412;9.514;2023-07-08T04:53:17;4.88;;;4.38;;
12976;SDS011;6553;48.412;9.514;2023-07-08T04:55:48;5.43;;;4.80;;
12976;SDS011;6553;48.412;9.514;2023-07-08T04:58:17;4.93;;;4.43;;
12976;SDS011;6553;48.412;9.514;2023-07-08T05:00:43;5.28;;;4.47;;
12976;SDS011;6553;48.412;9.514;2023-07-08T05:03:09;5.47;;;4.55;;
12976;SDS011;6553;48.412;9.514;2023-07-08T05:05:35;5.25;;;4.40;;
12976;SDS011;6553;48.412;9.514;2023-07-08T05:08:01;4.43;;;4.03;;
12976;SDS011;6553;48.412;9.514;2023-07-08T05:10:27;5.50;;;4.47;;
12976;SDS011;6553;48.412;9.514;2023-07-08T05:12:53;5.15;;;4.65;;
12976;SDS011;6553;48.412;9.514;2023-07-08T05:15:19;6.03;;;4.40;;
12976;SDS011;6553;48.412;9.514;2023-07-08T05:17:45;5.18;;;4.32;;
12976;SDS011;6553;48.412;9.514;2023-07-08T05:20:13;5.05;;;4.55;;
12976;SDS011;6553;48.412;9.514;2023-07-08T05:22:39;4.82;;;4.30;;
12976;SDS011;6553;48.412;9.514;2023-07-08T05:25:08;4.93;;;4.43;;
12976;SDS011;6553;48.412;9.514;2023-07-08T05:27:34;4.43;;;3.95;;
12976;SDS011;6553;48.412;9.514;2023-07-08T05:30:04;4.13;;;3.67;;
12976;SDS011;6553;48.412;9.514;2023-07-08T05:32:32;5.32;;;4.40;;
12976;SDS011;6553;48.412;9.514;2023-07-08T05:34:58;5.05;;;4.40;;
12976;SDS011;6553;48.412;9.514;2023-07-08T05:37:24;5.32;;;4.65;;
12976;SDS011;6553;48.412;9.514;2023-07-08T05:39:52;4.80;;;4.30;;
12976;SDS011;6553;48.412;9.514;2023-07-08T05:42:19;4.50;;;3.95;;
12976;SDS011;6553;48.412;9.514;2023-07-08T05:44:46;5.03;;;4.15;;
12976;SDS011;6553;48.412;9.514;2023-07-08T05:47:13;5.90;;;4.90;;
12976;SDS011;6553;48.412;9.514;2023-07-08T05:49:40;5.15;;;4.35;;
12976;SDS011;6553;48.412;9.514;2023-07-08T05:52:06;4.90;;;4.38;;
12976;SDS011;6553;48.412;9.514;2023-07-08T05:54:39;5.35;;;4.68;;
12976;SDS011;6553;48.412;9.514;2023-07-08T05:57:06;5.00;;;4.50;;
12976;SDS011;6553;48.412;9.514;2023-07-08T05:59:35;4.90;;;4.40;;
12976;SDS011;6553;48.412;9.514;2023-07-08T06:02:04;5.40;;;4.90;;
12976;SDS011;6553;48.412;9.514;2023-07-08T06:04:31;5.97;;;4.95;;
12976;SDS011;6553;48.412;9.514;2023-07-08T06:06:57;5.40;;;4.60;;
12976;SDS011;6553;48.412;9.514;2023-07-08T06:09:23;4.80;;;4.35;;
12976;SDS011;6553;48.412;9.514;2023-07-08T06:11:49;5.78;;;5.10;;
12976;SDS011;6553;48.412;9.514;2023-07-08T06:14:15;5.85;;;4.65;;
12976;SDS011;6553;48.412;9.514;2023-07-08T06:16:41;6.07;;;4.70;;
12976;SDS011;6553;48.412;9.514;2023-07-08T06:19:06;4.95;;;4.50;;
12976;SDS011;6553;48.412;9.514;2023-07-08T06:21:33;4.75;;;4.35;;
12976;SDS011;6553;48.412;9.514;2023-07-08T06:23:59;4.78;;;4.05;;
12976;SDS011;6553;48.412;9.514;2023-07-08T06:26:25;6.05;;;4.40;;
12976;SDS011;6553;48.412;9.514;2023-07-08T06:28:51;5.00;;;4.50;;
12976;SDS011;6553;48.412;9.514;2023-07-08T06:31:17;6.05;;;4.43;;
12976;SDS011;6553;48.412;9.514;2023-07-08T06:33:42;5.10;;;4.50;;
12976;SDS011;6553;48.412;9.514;2023-07-08T06:36:08;4.43;;;4.03;;
12976;SDS011;6553;48.412;9.514;2023-07-08T06:38:34;5.03;;;4.53;;
12976;SDS011;6553;48.412;9.514;2023-07-08T06:41:00;5.07;;;4.57;;
12976;SDS011;6553;48.412;9.514;2023-07-08T06:43:25;5.28;;;4.32;;
12976;SDS011;6553;48.412;9.514;2023-07-08T06:46:03;4.40;;;4.00;;
12976;SDS011;6553;48.412;9.514;2023-07-08T06:48:29;5.30;;;3.97;;
12976;SDS011;6553;48.412;9.514;2023-07-08T06:50:56;5.90;;;4.60;;
12976;SDS011;6553;48.412;9.514;2023-07-08T06:53:22;4.63;;;4.22;;
12976;SDS011;6553;48.412;9.514;2023-07-08T06:55:48;4.90;;;4.40;;
12976;SDS011;6553;48.412;9.514;2023-07-08T06:58:14;5.28;;;4.20;;
12976;SDS011;6553;48.412;9.514;2023-07-08T07:00:44;5.68;;;4.30;;
12976;SDS011;6553;48.412;9.514;2023-07-08T07:03:10;5.07;;;4.15;;
12976;SDS011;6553;48.412;9.514;2023-07-08T07:05:37;4.63;;;4.22;;
12976;SDS011;6553;48.412;9.514;2023-07-08T07:08:03;5.55;;;4.40;;
12976;SDS011;6553;48.412;9.514;2023-07-08T07:10:30;5.43;;;4.80;;
12976;SDS011;6553;48.412;9.514;2023-07-08T07:12:56;5.40;;;3.95;;
12976;SDS011;6553;48.412;9.514;2023-07-08T07:15:22;4.93;;;4.00;;
12976;SDS011;6553;48.412;9.514;2023-07-08T07:17:47;4.72;;;4.28;;
12976;SDS011;6553;48.412;9.514;2023-07-08T07:20:13;5.22;;;4.43;;
12976;SDS011;6553;48.412;9.514;2023-07-08T07:22:39;4.90;;;4.40;;
12976;SDS011;6553;48.412;9.514;2023-07-08T07:25:05;4.65;;;4.25;;
12976;SDS011;6553;48.412;9.514;2023-07-08T07:27:31;5.25;;;4.07;;
12976;SDS011;6553;48.412;9.514;2023-07-08T07:29:57;4.47;;;4.07;;
12976;SDS011;6553;48.412;9.514;2023-07-08T07:32:26;5.32;;;4.10;;
12976;SDS011;6553;48.412;9.514;2023-07-08T07:34:52;4.97;;;4.47;;
12976;SDS011;6553;48.412;9.514;2023-07-08T07:37:19;4.85;;;4.38;;
12976;SDS011;6553;48.412;9.514;2023-07-08T07:39:47;4.82;;;4.20;;
12976;SDS011;6553;48.412;9.514;2023-07-08T07:42:14;5.28;;;4.47;;
12976;SDS011;6553;48.412;9.514;2023-07-08T07:44:41;4.45;;;4.05;;
12976;SDS011;6553;48.412;9.514;2023-07-08T07:47:08;4.82;;;4.32;;
12976;SDS011;6553;48.412;9.514;2023-07-08T07:49:34;4.93;;;4.40;;
12976;SDS011;6553;48.412;9.514;2023-07-08T07:52:01;5.15;;;4.40;;
12976;SDS011;6553;48.412;9.514;2023-07-08T07:54:28;4.57;;;3.97;;
12976;SDS011;6553;48.412;9.514;2023-07-08T07:56:53;5.65;;;4.53;;
12976;SDS011;6553;48.412;9.514;2023-07-08T07:59:19;6.57;;;4.20;;
12976;SDS011;6553;48.412;9.514;2023-07-08T08:01:46;5.55;;;4.28;;
12976;SDS011;6553;48.412;9.514;2023-07-08T08:04:12;4.50;;;3.88;;
12976;SDS011;6553;48.412;9.514;2023-07-08T08:06:37;5.15;;;4.07;;
12976;SDS011;6553;48.412;9.514;2023-07-08T08:09:04;5.45;;;4.60;;
12976;SDS011;6553;48.412;9.514;2023-07-08T08:11:32;4.30;;;3.90;;
12976;SDS011;6553;48.412;9.514;2023-07-08T08:13:59;5.43;;;4.38;;
12976;SDS011;6553;48.412;9.514;2023-07-08T08:16:25;4.97;;;3.90;;
12976;SDS011;6553;48.412;9.514;2023-07-08T08:18:51;5.05;;;4.15;;
12976;SDS011;6553;48.412;9.514;2023-07-08T08:21:17;4.78;;;4.00;;
12976;SDS011;6553;48.412;9.514;2023-07-08T08:23:43;6.03;;;4.32;;
12976;SDS011;6553;48.412;9.514;2023-07-08T08:26:09;5.95;;;4.00;;
12976;SDS011;6553;48.412;9.514;2023-07-08T08:28:34;4.60;;;4.03;;
12976;SDS011;6553;48.412;9.514;2023-07-08T08:31:00;4.30;;;3.90;;
12976;SDS011;6553;48.412;9.514;2023-07-08T08:33:26;4.50;;;4.10;;
12976;SDS011;6553;48.412;9.514;2023-07-08T08:35:52;5.35;;;4.30;;
12976;SDS011;6553;48.412;9.514;2023-07-08T08:38:17;5.00;;;4.10;;
12976;SDS011;6553;48.412;9.514;2023-07-08T08:40:43;4.57;;;4.18;;
12976;SDS011;6553;48.412;9.514;2023-07-08T08:43:10;4.65;;;4.18;;
12976;SDS011;6553;48.412;9.514;2023-07-08T08:45:51;4.05;;;3.65;;
12976;SDS011;6553;48.412;9.514;2023-07-08T08:48:26;4.22;;;3.83;;
12976;SDS011;6553;48.412;9.514;2023-07-08T08:51:12;4.25;;;3.85;;
12976;SDS011;6553;48.412;9.514;2023-07-08T08:53:40;4.35;;;3.75;;
12976;SDS011;6553;48.412;9.514;2023-07-08T08:56:15;6.03;;;4.38;;
12976;SDS011;6553;48.412;9.514;2023-07-08T09:01:44;4.57;;;4.13;;
12976;SDS011;6553;48.412;9.514;2023-07-08T09:04:12;4.40;;;4.00;;
12976;SDS011;6553;48.412;9.514;2023-07-08T09:06:46;3.72;;;3.30;;
12976;SDS011;6553;48.412;9.514;2023-07-08T09:09:17;4.18;;;3.53;;
12976;SDS011;6553;48.412;9.514;2023-07-08T09:12:03;4.25;;;3.85;;
12976;SDS011;6553;48.412;9.514;2023-07-08T09:14:35;4.03;;;3.63;;
12976;SDS011;6553;48.412;9.514;2023-07-08T09:17:20;4.88;;;4.10;;
12976;SDS011;6553;48.412;9.514;2023-07-08T09:20:32;4.18;;;3.65;;
12976;SDS011;6553;48.412;9.514;2023-07-08T09:22:58;3.88;;;3.38;;
12976;SDS011;6553;48.412;9.514;2023-07-08T09:28:39;4.20;;;3.80;;
12976;SDS011;6553;48.412;9.514;2023-07-08T09:31:10;4.20;;;3.85;;
12976;SDS011;6553;48.412;9.514;2023-07-08T09:33:52;4.25;;;3.85;;
12976;SDS011;6553;48.412;9.514;2023-07-08T09:36:48;4.90;;;4.10;;
12976;SDS011;6553;48.412;9.514;2023-07-08T09:39:17;3.83;;;3.08;;
12976;SDS011;6553;48.412;9.514;2023-07-08T09:41:46;4.07;;;3.67;;
12976;SDS011;6553;48.412;9.514;2023-07-08T09:44:20;5.38;;;3.45;;
12976;SDS011;6553;48.412;9.514;2023-07-08T09:46:55;3.92;;;3.53;;
12976;SDS011;6553;48.412;9.514;2023-07-08T09:49:26;4.18;;;3.53;;
12976;SDS011;6553;48.412;9.514;2023-07-08T09:52:00;4.82;;;3.78;;
12976;SDS011;6553;48.412;9.514;2023-07-08T09:54:29;4.22;;;3.28;;
12976;SDS011;6553;48.412;9.514;2023-07-08T09:59:38;3.95;;;3.60;;
12976;SDS011;6553;48.412;9.514;2023-07-08T10:02:24;3.85;;;3.33;;
12976;SDS011;6553;48.412;9.514;2023-07-08T10:05:14;4.13;;;3.72;;
12976;SDS011;6553;48.412;9.514;2023-07-08T10:07:47;4.10;;;3.35;;
12976;SDS011;6553;48.412;9.514;2023-07-08T10:10:17;3.50;;;3.20;;
12976;SDS011;6553;48.412;9.514;2023-07-08T10:12:59;4.15;;;3.47;;
12976;SDS011;6553;48.412;9.514;2023-07-08T10:15:40;5.32;;;3.58;;
12976;SDS011;6553;48.412;9.514;2023-07-08T10:18:16;3.85;;;3.03;;
12976;SDS011;6553;48.412;9.514;2023-07-08T10:21:02;3.40;;;3.10;;
12976;SDS011;6553;48.412;9.514;2023-07-08T10:42:18;4.65;;;3.13;;
12976;SDS011;6553;48.412;9.514;2023-07-08T10:45:26;4.93;;;3.72;;
12976;SDS011;6553;48.412;9.514;2023-07-08T10:48:30;4.40;;;3.20;;
12976;SDS011;6553;48.412;9.514;2023-07-08T11:03:36;3.30;;;2.97;;
12976;SDS011;6553;48.412;9.514;2023-07-08T11:06:22;3.53;;;3.00;;
12976;SDS011;6553;48.412;9.514;2023-07-08T11:09:00;4.40;;;2.95;;
12976;SDS011;6553;48.412;9.514;2023-07-08T11:11:41;3.08;;;2.78;;
12976;SDS011;6553;48.412;9.514;2023-07-08T11:14:17;4.07;;;3.22;;
12976;SDS011;6553;48.412;9.514;2023-07-08T11:17:04;4.35;;;3.03;;
12976;SDS011;6553;48.412;9.514;2023-07-08T11:19:57;4.18;;;3.78;;
12976;SDS011;6553;48.412;9.514;2023-07-08T11:22:57;5.30;;;4.75;;
12976;SDS011;6553;48.412;9.514;2023-07-08T11:25:44;5.85;;;5.13;;
12976;SDS011;6553;48.412;9.514;2023-07-08T11:28:14;5.70;;;4.45;;
12976;SDS011;6553;48.412;9.514;2023-07-08T11:30:46;5.78;;;5.15;;
12976;SDS011;6553;48.412;9.514;2023-07-08T11:33:17;11.68;;;8.05;;
12976;SDS011;6553;48.412;9.514;2023-07-08T11:35:50;6.97;;;6.28;;
12976;SDS011;6553;48.412;9.514;2023-07-08T11:38:24;5.97;;;5.07;;
12976;SDS011;6553;48.412;9.514;2023-07-08T11:40:55;6.70;;;6.05;;
12976;SDS011;6553;48.412;9.514;2023-07-08T11:43:22;6.68;;;5.97;;
12976;SDS011;6553;48.412;9.514;2023-07-08T11:46:02;6.20;;;5.70;;
12976;SDS011;6553;48.412;9.514;2023-07-08T11:48:36;6.75;;;6.05;;
12976;SDS011;6553;48.412;9.514;2023-07-08T11:51:09;6.90;;;6.00;;
12976;SDS011;6553;48.412;9.514;2023-07-08T11:54:28;6.68;;;6.07;;
12976;SDS011;6553;48.412;9.514;2023-07-08T11:56:28;5.20;;;4.70;;
12976;SDS011;6553;48.412;9.514;2023-07-08T11:59:20;6.80;;;6.05;;
12976;SDS011;6553;48.412;9.514;2023-07-08T12:04:32;6.30;;;5.70;;
12976;SDS011;6553;48.412;9.514;2023-07-08T12:07:52;6.28;;;5.68;;
12976;SDS011;6553;48.412;9.514;2023-07-08T12:10:18;6.53;;;5.93;;
12976;SDS011;6553;48.412;9.514;2023-07-08T12:13:16;6.47;;;5.88;;
12976;SDS011;6553;48.412;9.514;2023-07-08T12:15:46;6.63;;;5.88;;
12976;SDS011;6553;48.412;9.514;2023-07-08T12:18:23;6.38;;;5.78;;
12976;SDS011;6553;48.412;9.514;2023-07-08T12:20:58;7.18;;;6.25;;
12976;SDS011;6553;48.412;9.514;2023-07-08T12:23:29;6.68;;;6.00;;
12976;SDS011;6553;48.412;9.514;2023-07-08T12:25:56;6.28;;;5.68;;
12976;SDS011;6553;48.412;9.514;2023-07-08T12:28:23;6.43;;;5.78;;
12976;SDS011;6553;48.412;9.514;2023-07-08T12:30:49;6.75;;;6.07;;
12976;SDS011;6553;48.412;9.514;2023-07-08T12:33:27;6.50;;;5.70;;
12976;SDS011;6553;48.412;9.514;2023-07-08T12:35:57;6.55;;;5.45;;
12976;SDS011;6553;48.412;9.514;2023-07-08T12:41:11;5.30;;;4.80;;
12976;SDS011;6553;48.412;9.514;2023-07-08T12:43:47;6.13;;;5.43;;
12976;SDS011;6553;48.412;9.514;2023-07-08T12:46:14;6.30;;;5.70;;
12976;SDS011;6553;48.412;9.514;2023-07-08T12:48:43;5.95;;;5.45;;
12976;SDS011;6553;48.412;9.514;2023-07-08T12:51:11;5.28;;;4.80;;
12976;SDS011;6553;48.412;9.514;2023-07-08T12:53:45;5.50;;;5.00;;
12976;SDS011;6553;48.412;9.514;2023-07-08T12:56:13;5.57;;;5.07;;
12976;SDS011;6553;48.412;9.514;2023-07-08T12:58:41;5.72;;;5.13;;
12976;SDS011;6553;48.412;9.514;2023-07-08T13:01:18;5.53;;;5.00;;
12976;SDS011;6553;48.412;9.514;2023-07-08T13:03:52;5.60;;;5.00;;
12976;SDS011;6553;48.412;9.514;2023-07-08T13:06:25;5.50;;;5.00;;
12976;SDS011;6553;48.412;9.514;2023-07-08T13:09:00;5.80;;;5.20;;
12976;SDS011;6553;48.412;9.514;2023-07-08T13:11:50;5.97;;;5.15;;
12976;SDS011;6553;48.412;9.514;2023-07-08T13:14:20;5.55;;;4.63;;
12976;SDS011;6553;48.412;9.514;2023-07-08T13:16:49;5.03;;;4.47;;
12976;SDS011;6553;48.412;9.514;2023-07-08T13:19:15;5.55;;;4.85;;
12976;SDS011;6553;48.412;9.514;2023-07-08T13:21:42;6.25;;;4.60;;
12976;SDS011;6553;48.412;9.514;2023-07-08T13:24:11;5.00;;;4.50;;
12976;SDS011;6553;48.412;9.514;2023-07-08T13:26:37;5.45;;;4.93;;
12976;SDS011;6553;48.412;9.514;2023-07-08T13:29:06;5.65;;;4.72;;
12976;SDS011;6553;48.412;9.514;2023-07-08T13:31:41;5.38;;;4.88;;
12976;SDS011;6553;48.412;9.514;2023-07-08T13:34:18;5.00;;;4.50;;
12976;SDS011;6553;48.412;9.514;2023-07-08T13:36:49;4.75;;;4.30;;
12976;SDS011;6553;48.412;9.514;2023-07-08T13:39:19;4.90;;;4.40;;
12976;SDS011;6553;48.412;9.514;2023-07-08T13:41:56;4.55;;;4.10;;
12976;SDS011;6553;48.412;9.514;2023-07-08T13:44:23;4.47;;;4.07;;
12976;SDS011;6553;48.412;9.514;2023-07-08T13:49:38;4.70;;;4.20;;
12976;SDS011;6553;48.412;9.514;2023-07-08T13:54:44;4.40;;;4.00;;
12976;SDS011;6553;48.412;9.514;2023-07-08T13:57:23;4.10;;;3.70;;
12976;SDS011;6553;48.412;9.514;2023-07-08T13:59:58;6.93;;;3.58;;
12976;SDS011;6553;48.412;9.514;2023-07-08T14:02:25;4.60;;;4.13;;
12976;SDS011;6553;48.412;9.514;2023-07-08T14:04:56;4.05;;;3.67;;
12976;SDS011;6553;48.412;9.514;2023-07-08T14:07:25;4.57;;;4.00;;
12976;SDS011;6553;48.412;9.514;2023-07-08T14:09:54;4.53;;;3.80;;
12976;SDS011;6553;48.412;9.514;2023-07-08T14:12:22;4.43;;;3.28;;
12976;SDS011;6553;48.412;9.514;2023-07-08T14:14:48;4.25;;;3.85;;
12976;SDS011;6553;48.412;9.514;2023-07-08T14:17:22;4.95;;;3.70;;
12976;SDS011;6553;48.412;9.514;2023-07-08T14:19:51;3.67;;;3.38;;
12976;SDS011;6553;48.412;9.514;2023-07-08T14:22:25;4.18;;;3.72;;
12976;SDS011;6553;48.412;9.514;2023-07-08T14:24:53;3.60;;;3.30;;
12976;SDS011;6553;48.412;9.514;2023-07-08T14:27:20;3.88;;;3.58;;
12976;SDS011;6553;48.412;9.514;2023-07-08T14:29:47;4.07;;;3.60;;
12976;SDS011;6553;48.412;9.514;2023-07-08T14:32:16;3.70;;;3.40;;
12976;SDS011;6553;48.412;9.514;2023-07-08T14:34:52;3.83;;;3.53;;
12976;SDS011;6553;48.412;9.514;2023-07-08T14:37:21;3.72;;;3.25;;
12976;SDS011;6553;48.412;9.514;2023-07-08T14:39:47;4.18;;;3.70;;
12976;SDS011;6553;48.412;9.514;2023-07-08T14:42:14;3.95;;;3.13;;
12976;SDS011;6553;48.412;9.514;2023-07-08T14:44:44;3.38;;;3.08;;
12976;SDS011;6553;48.412;9.514;2023-07-08T14:47:16;3.70;;;3.08;;
12976;SDS011;6553;48.412;9.514;2023-07-08T14:49:44;3.60;;;3.30;;
12976;SDS011;6553;48.412;9.514;2023-07-08T14:52:10;3.70;;;3.40;;
12976;SDS011;6553;48.412;9.514;2023-07-08T14:54:36;3.88;;;3.20;;
12976;SDS011;6553;48.412;9.514;2023-07-08T14:57:02;3.50;;;3.20;;
12976;SDS011;6553;48.412;9.514;2023-07-08T14:59:31;3.65;;;3.33;;
12976;SDS011;6553;48.412;9.514;2023-07-08T15:02:01;4.18;;;3.25;;
12976;SDS011;6553;48.412;9.514;2023-07-08T15:04:42;3.50;;;3.05;;
12976;SDS011;6553;48.412;9.514;2023-07-08T15:07:08;3.70;;;2.95;;
12976;SDS011;6553;48.412;9.514;2023-07-08T15:09:34;3.33;;;3.00;;
12976;SDS011;6553;48.412;9.514;2023-07-08T15:12:00;3.45;;;3.15;;
12976;SDS011;6553;48.412;9.514;2023-07-08T15:14:26;3.35;;;3.10;;
12976;SDS011;6553;48.412;9.514;2023-07-08T15:16:52;3.65;;;3.30;;
12976;SDS011;6553;48.412;9.514;2023-07-08T15:19:19;3.30;;;3.00;;
12976;SDS011;6553;48.412;9.514;2023-07-08T15:21:46;2.90;;;2.70;;
12976;SDS011;6553;48.412;9.514;2023-07-08T15:24:12;3.22;;;2.83;;
12976;SDS011;6553;48.412;9.514;2023-07-08T15:26:39;3.45;;;3.15;;
12976;SDS011;6553;48.412;9.514;2023-07-08T15:29:14;3.13;;;2.80;;
12976;SDS011;6553;48.412;9.514;2023-07-08T15:31:44;3.58;;;2.97;;
12976;SDS011;6553;48.412;9.514;2023-07-08T15:34:17;2.67;;;2.47;;
12976;SDS011;6553;48.412;9.514;2023-07-08T15:36:45;3.78;;;3.00;;
12976;SDS011;6553;48.412;9.514;2023-07-08T15:39:12;3.42;;;3.13;;
12976;SDS011;6553;48.412;9.514;2023-07-08T15:41:39;3.28;;;2.85;;
12976;SDS011;6553;48.412;9.514;2023-07-08T15:44:10;3.45;;;2.60;;
12976;SDS011;6553;48.412;9.514;2023-07-08T15:46:39;3.42;;;2.63;;
12976;SDS011;6553;48.412;9.514;2023-07-08T15:49:16;2.97;;;2.55;;
12976;SDS011;6553;48.412;9.514;2023-07-08T15:51:45;2.35;;;2.15;;
12976;SDS011;6553;48.412;9.514;2023-07-08T15:54:11;4.40;;;2.95;;
12976;SDS011;6553;48.412;9.514;2023-07-08T15:56:38;3.45;;;2.67;;
12976;SDS011;6553;48.412;9.514;2023-07-08T15:59:08;3.83;;;2.88;;
12976;SDS011;6553;48.412;9.514;2023-07-08T16:01:40;4.47;;;2.72;;
12976;SDS011;6553;48.412;9.514;2023-07-08T16:04:40;3.08;;;2.40;;
12976;SDS011;6553;48.412;9.514;2023-07-08T16:07:02;2.78;;;2.50;;
12976;SDS011;6553;48.412;9.514;2023-07-08T16:09:28;2.50;;;2.30;;
12976;SDS011;6553;48.412;9.514;2023-07-08T16:11:54;4.55;;;3.15;;
12976;SDS011;6553;48.412;9.514;2023-07-08T16:14:20;3.22;;;2.60;;
12976;SDS011;6553;48.412;9.514;2023-07-08T16:16:46;2.85;;;2.50;;
12976;SDS011;6553;48.412;9.514;2023-07-08T16:19:13;3.13;;;2.83;;
12976;SDS011;6553;48.412;9.514;2023-07-08T16:21:39;3.83;;;2.60;;
12976;SDS011;6553;48.412;9.514;2023-07-08T16:24:06;4.93;;;2.40;;